Time;durP1;ratioP1;P1;durP2;ratioP2;P2;SDS_P1;SDS_P2;PMS_P1;PMS_P2;Temp;Humidity;BMP_temperature;BMP_pressure;BME280_temperature;BME280_humidity;BME280_pressure;Samples;Min_cycle;Max_cycle;Signal;HPM_P1;HPM_P2
2022/08/14 00:02:41;;;;;;;4.50;4.23;;;23.00;99.90;;;;;;5078425;28;20526;-70
2022/08/14 00:05:32;;;;;;;4.80;4.50;;;22.90;99.90;;;;;;5078476;28;20526;-70
2022/08/14 00:08:27;;;;;;;5.03;4.73;;;22.90;99.90;;;;;;5076754;28;20974;-70
2022/08/14 00:11:32;;;;;;;4.70;4.30;;;22.90;99.90;;;;;;5080170;28;20845;-70
2022/08/14 00:14:24;;;;;;;4.83;4.33;;;22.80;99.90;;;;;;5078326;28;21106;-70
2022/08/14 00:17:17;;;;;;;5.17;4.77;;;22.80;99.90;;;;;;5077600;28;20520;-70
2022/08/14 00:20:07;;;;;;;4.70;4.40;;;22.80;99.90;;;;;;5079464;28;20607;-70
2022/08/14 00:23:00;;;;;;;5.20;4.80;;;22.70;99.90;;;;;;5077384;28;20596;-70
2022/08/14 00:26:03;;;;;;;4.93;4.60;;;22.70;99.90;;;;;;5077699;28;20617;-70
2022/08/14 00:28:56;;;;;;;4.60;4.20;;;22.60;99.90;;;;;;5075756;28;20536;-70
2022/08/14 00:31:48;;;;;;;5.17;4.67;;;22.60;99.90;;;;;;5076165;28;20462;-69
2022/08/14 00:34:44;;;;;;;4.87;4.50;;;22.60;99.90;;;;;;5078805;28;20477;-70
2022/08/14 00:37:37;;;;;;;5.00;4.60;;;22.60;99.90;;;;;;5077040;28;20463;-70
2022/08/14 00:40:28;;;;;;;4.60;4.20;;;22.50;99.90;;;;;;5077612;28;20446;-70
2022/08/14 00:43:29;;;;;;;4.97;4.67;;;22.50;99.90;;;;;;5077406;28;20441;-70
2022/08/14 00:46:21;;;;;;;4.50;4.20;;;22.50;99.90;;;;;;5078936;28;20976;-70
2022/08/14 00:49:22;;;;;;;4.67;4.20;;;22.40;99.90;;;;;;5077827;28;20446;-70
2022/08/14 00:52:18;;;;;;;4.43;4.13;;;22.40;99.90;;;;;;5078604;28;20591;-69
2022/08/14 00:55:08;;;;;;;4.47;4.10;;;22.40;99.90;;;;;;5078897;28;20541;-70
2022/08/14 01:01:23;;;;;;;4.67;4.30;;;22.30;99.90;;;;;;5077253;28;20496;-70
2022/08/14 01:04:13;;;;;;;5.10;4.80;;;22.30;99.90;;;;;;5075797;28;21027;-70
2022/08/14 01:07:24;;;;;;;5.40;4.60;;;22.20;99.90;;;;;;5077422;28;20442;-70
2022/08/14 01:10:17;;;;;;;5.60;4.80;;;22.30;99.90;;;;;;5078271;28;20472;-70
2022/08/14 01:13:09;;;;;;;4.73;4.30;;;22.20;99.90;;;;;;5074710;28;20454;-70
2022/08/14 01:15:59;;;;;;;4.83;4.43;;;22.20;99.90;;;;;;5075741;28;20531;-70
2022/08/14 01:22:17;;;;;;;5.63;5.23;;;22.20;99.90;;;;;;5048021;28;20457;-69
2022/08/14 01:25:07;;;;;;;4.80;4.40;;;22.10;99.90;;;;;;5076469;28;20477;-70
2022/08/14 01:27:58;;;;;;;4.60;4.30;;;22.10;99.90;;;;;;5073939;28;20927;-70
2022/08/14 01:30:47;;;;;;;4.60;4.30;;;22.10;99.90;;;;;;5076135;28;20792;-70
2022/08/14 01:33:39;;;;;;;4.70;4.30;;;22.10;99.90;;;;;;5076262;28;20449;-70
2022/08/14 01:36:48;;;;;;;4.97;4.60;;;22.10;99.90;;;;;;5076648;28;20467;-70
2022/08/14 01:39:38;;;;;;;4.40;4.10;;;22.10;99.90;;;;;;5071868;28;20507;-70
2022/08/14 01:42:28;;;;;;;5.53;4.97;;;22.00;99.90;;;;;;5076984;28;20927;-70
2022/08/14 01:45:25;;;;;;;5.13;4.63;;;22.00;99.90;;;;;;5075317;28;20472;-70
2022/08/14 01:48:14;;;;;;;5.43;5.03;;;22.00;99.90;;;;;;5078613;28;20451;-70
2022/08/14 01:51:11;;;;;;;4.60;4.30;;;22.00;99.90;;;;;;5077151;28;20448;-70
2022/08/14 01:54:10;;;;;;;5.37;4.97;;;22.00;99.90;;;;;;5077168;28;20473;-70
2022/08/14 01:57:10;;;;;;;4.70;4.40;;;21.90;99.90;;;;;;5078331;28;20532;-70
2022/08/14 02:00:02;;;;;;;5.03;4.73;;;22.00;99.90;;;;;;5070964;28;20453;-70
2022/08/14 02:02:50;;;;;;;4.97;4.57;;;21.90;99.90;;;;;;5076603;28;20482;-70
2022/08/14 02:05:46;;;;;;;4.67;4.37;;;21.90;99.90;;;;;;5077938;28;20465;-70
2022/08/14 02:08:38;;;;;;;5.03;4.73;;;21.90;99.90;;;;;;5075848;28;20458;-70
2022/08/14 02:11:46;;;;;;;4.80;4.50;;;21.90;99.90;;;;;;5076622;28;20442;-70
2022/08/14 02:14:45;;;;;;;5.20;4.80;;;21.90;99.90;;;;;;5073197;28;21133;-70
2022/08/14 02:17:51;;;;;;;5.07;4.60;;;21.80;99.90;;;;;;5074886;28;20438;-70
2022/08/14 02:20:40;;;;;;;5.67;5.30;;;21.90;99.90;;;;;;5077262;28;20520;-70
2022/08/14 02:23:29;;;;;;;5.97;5.47;;;21.90;99.90;;;;;;5075967;28;20456;-70
2022/08/14 02:26:25;;;;;;;5.63;5.23;;;21.90;99.90;;;;;;5075060;28;20458;-70
2022/08/14 02:29:22;;;;;;;4.63;4.40;;;21.80;99.90;;;;;;5074254;28;20448;-69
2022/08/14 02:32:16;;;;;;;5.00;4.70;;;21.80;99.90;;;;;;5077816;28;21071;-70
2022/08/14 02:35:18;;;;;;;5.00;4.70;;;21.80;99.90;;;;;;5076927;28;20476;-70
2022/08/14 02:38:13;;;;;;;5.40;5.00;;;21.80;99.90;;;;;;5077153;28;20444;-70
2022/08/14 02:41:22;;;;;;;4.90;4.50;;;21.70;99.90;;;;;;5076451;28;20444;-70
2022/08/14 02:44:16;;;;;;;5.10;4.60;;;21.70;99.90;;;;;;5074207;28;20956;-70
2022/08/14 02:47:21;;;;;;;4.80;4.40;;;21.70;99.90;;;;;;5075557;28;20445;-70
2022/08/14 02:50:16;;;;;;;4.50;4.23;;;21.70;99.90;;;;;;5076844;28;20448;-70
2022/08/14 02:53:16;;;;;;;5.17;4.77;;;21.70;99.90;;;;;;5077400;28;20591;-70
2022/08/14 02:56:04;;;;;;;4.87;4.57;;;21.70;99.90;;;;;;5080828;28;20526;-70
2022/08/14 02:59:15;;;;;;;5.37;4.90;;;21.70;99.90;;;;;;5081102;28;20447;-70
2022/08/14 03:02:05;;;;;;;4.77;4.43;;;21.60;99.90;;;;;;5079422;28;20810;-69
2022/08/14 03:05:15;;;;;;;4.77;4.30;;;21.60;99.90;;;;;;5080587;28;20841;-70
2022/08/14 03:08:10;;;;;;;4.90;4.50;;;21.60;99.90;;;;;;5081521;28;20450;-69
2022/08/14 03:11:05;;;;;;;4.80;4.47;;;21.60;99.90;;;;;;5075882;28;21585;-70
2022/08/14 03:13:55;;;;;;;4.93;4.63;;;21.60;99.90;;;;;;5080567;28;21043;-70
2022/08/14 03:16:44;;;;;;;4.87;4.57;;;21.60;99.90;;;;;;5078988;28;21052;-70
2022/08/14 03:19:36;;;;;;;4.93;4.60;;;21.60;99.90;;;;;;5079267;28;20477;-70
2022/08/14 03:22:28;;;;;;;4.93;4.63;;;21.50;99.90;;;;;;5081940;28;20900;-70
2022/08/14 03:28:45;;;;;;;5.17;4.67;;;21.50;99.90;;;;;;5080437;28;20449;-70
2022/08/14 03:31:50;;;;;;;4.80;4.40;;;21.50;99.90;;;;;;5080110;28;20458;-70
2022/08/14 03:34:43;;;;;;;5.70;5.20;;;21.50;99.90;;;;;;5078873;28;21090;-70
2022/08/14 03:37:48;;;;;;;5.07;4.70;;;21.50;99.90;;;;;;5079342;28;20456;-70
2022/08/14 03:40:56;;;;;;;4.50;4.30;;;21.40;99.90;;;;;;5076308;28;20461;-70
2022/08/14 03:43:53;;;;;;;4.77;4.47;;;21.40;99.90;;;;;;5078089;28;20452;-70
2022/08/14 03:46:50;;;;;;;4.90;4.60;;;21.40;99.90;;;;;;5080510;28;20446;-70
2022/08/14 03:49:50;;;;;;;4.90;4.43;;;21.40;99.90;;;;;;5079619;28;20979;-70
2022/08/14 03:52:46;;;;;;;5.10;4.80;;;21.30;99.90;;;;;;5079514;28;20443;-70
2022/08/14 03:55:44;;;;;;;4.97;4.67;;;21.30;99.90;;;;;;5075354;28;20492;-70
2022/08/14 03:58:38;;;;;;;7.67;4.90;;;21.30;99.90;;;;;;5077325;28;20828;-69
2022/08/14 04:01:30;;;;;;;4.87;4.57;;;21.30;99.90;;;;;;5079212;28;20507;-69
2022/08/14 04:04:37;;;;;;;5.23;4.73;;;21.30;99.90;;;;;;5078358;28;20465;-71
2022/08/14 04:07:26;;;;;;;4.83;4.43;;;21.20;99.90;;;;;;5076932;28;20445;-71
2022/08/14 04:10:25;;;;;;;5.43;5.13;;;21.20;99.90;;;;;;5076391;28;20617;-71
2022/08/14 04:13:20;;;;;;;6.23;5.70;;;21.20;99.90;;;;;;5078349;28;20452;-71
2022/08/14 04:16:13;;;;;;;6.53;6.13;;;21.20;99.90;;;;;;5077750;28;20524;-71
2022/08/14 04:19:07;;;;;;;6.97;6.57;;;21.20;99.90;;;;;;5079102;28;20451;-71
2022/08/14 04:21:55;;;;;;;7.93;7.27;;;21.10;99.90;;;;;;5076496;28;20535;-70
2022/08/14 04:25:01;;;;;;;7.80;7.13;;;21.20;99.90;;;;;;5075415;28;20477;-70
2022/08/14 04:28:00;;;;;;;9.03;8.27;;;21.10;99.90;;;;;;5079959;28;21154;-70
2022/08/14 04:30:50;;;;;;;7.90;7.30;;;21.10;99.90;;;;;;5079336;28;20459;-69
2022/08/14 04:33:40;;;;;;;6.87;6.27;;;21.10;99.90;;;;;;5078235;28;20442;-69
2022/08/14 04:43:34;;;;;;;6.17;5.70;;;21.10;99.90;;;;;;5078218;28;20851;-70
2022/08/14 04:46:20;;;;;;;5.23;4.73;;;21.20;99.90;;;;;;5051165;28;20485;-70
2022/08/14 04:49:35;;;;;;;4.90;4.50;;;21.20;99.90;;;;;;5077588;28;20449;-70
2022/08/14 04:52:48;;;;;;;4.90;4.50;;;21.20;99.90;;;;;;5075824;28;20824;-70
2022/08/14 04:55:47;;;;;;;4.63;3.80;;;21.20;99.90;;;;;;5077033;28;21069;-70
2022/08/14 04:58:46;;;;;;;5.67;4.20;;;21.20;99.90;;;;;;5077384;28;21073;-70
2022/08/14 05:01:35;;;;;;;5.43;4.93;;;21.20;99.90;;;;;;5078448;28;20475;-70
2022/08/14 05:04:30;;;;;;;6.27;4.87;;;21.20;99.90;;;;;;5078023;28;20449;-70
2022/08/14 05:07:32;;;;;;;5.47;4.60;;;21.20;99.90;;;;;;5074636;28;20542;-70
2022/08/14 05:10:44;;;;;;;4.97;4.57;;;21.30;99.90;;;;;;5077274;28;21125;-70
2022/08/14 05:13:43;;;;;;;4.70;4.27;;;21.30;99.90;;;;;;5076151;28;20525;-70
2022/08/14 05:17:15;;;;;;;5.20;4.30;;;21.30;99.90;;;;;;5077977;28;21043;-69
2022/08/14 05:20:08;;;;;;;4.70;4.40;;;21.30;99.90;;;;;;5079170;28;20457;-70
2022/08/14 05:23:18;;;;;;;4.83;4.37;;;21.30;99.90;;;;;;5076257;28;20445;-69
2022/08/14 05:26:20;;;;;;;4.67;4.37;;;21.30;99.90;;;;;;5075942;28;20482;-69
2022/08/14 05:29:10;;;;;;;5.00;4.60;;;21.30;99.90;;;;;;5076137;28;20972;-69
2022/08/14 05:32:05;;;;;;;5.00;4.53;;;21.40;99.90;;;;;;5078195;28;20460;-68
2022/08/14 05:34:56;;;;;;;4.70;4.40;;;21.40;99.90;;;;;;5075342;28;20618;-68
2022/08/14 05:37:50;;;;;;;4.60;4.20;;;21.40;99.90;;;;;;5075909;28;20488;-68
2022/08/14 05:40:41;;;;;;;5.03;4.73;;;21.40;99.90;;;;;;5074307;28;20456;-69
2022/08/14 05:43:33;;;;;;;5.90;5.40;;;21.50;99.90;;;;;;5075725;28;20456;-69
2022/08/14 05:46:30;;;;;;;4.50;4.20;;;21.50;99.90;;;;;;5075833;28;20472;-69
2022/08/14 05:49:21;;;;;;;5.17;4.60;;;21.50;99.90;;;;;;5071961;28;20552;-70
2022/08/14 05:52:20;;;;;;;5.43;4.80;;;21.50;99.90;;;;;;5074993;28;20437;-70
2022/08/14 05:55:25;;;;;;;5.90;4.70;;;21.60;99.90;;;;;;5076413;28;20473;-69
2022/08/14 05:58:14;;;;;;;5.10;4.70;;;21.60;99.90;;;;;;5071954;28;20446;-70
2022/08/14 06:01:10;;;;;;;5.50;5.00;;;21.60;99.90;;;;;;5074176;28;20448;-70
2022/08/14 06:04:23;;;;;;;5.70;5.17;;;21.70;99.90;;;;;;5058511;28;21194;-71
2022/08/14 06:07:12;;;;;;;5.13;4.73;;;21.70;99.90;;;;;;5059426;28;20456;-71
2022/08/14 06:10:02;;;;;;;6.73;4.87;;;21.70;99.90;;;;;;5067049;28;21030;-70
2022/08/14 06:12:51;;;;;;;5.10;4.43;;;21.70;99.90;;;;;;5070967;28;20472;-71
2022/08/14 06:15:44;;;;;;;5.20;4.80;;;21.70;99.90;;;;;;5064680;28;21441;-70
2022/08/14 06:18:35;;;;;;;6.40;5.10;;;21.80;99.90;;;;;;5073232;28;20469;-72
2022/08/14 06:21:25;;;;;;;5.10;4.70;;;21.80;99.90;;;;;;5076364;28;20449;-71
2022/08/14 06:24:13;;;;;;;5.10;4.47;;;21.80;99.90;;;;;;5074864;28;20589;-71
2022/08/14 06:27:06;;;;;;;5.97;5.47;;;21.80;99.90;;;;;;5075283;28;20460;-71
2022/08/14 06:29:59;;;;;;;5.53;5.13;;;21.90;99.90;;;;;;5075474;28;20479;-70
2022/08/14 06:32:50;;;;;;;5.23;4.93;;;21.90;99.90;;;;;;5074275;28;20535;-71
2022/08/14 06:35:40;;;;;;;5.37;4.97;;;21.90;99.90;;;;;;5075386;28;20478;-71
2022/08/14 06:38:29;;;;;;;5.07;4.57;;;21.90;99.90;;;;;;5076201;28;20480;-71
2022/08/14 06:41:18;;;;;;;5.73;4.80;;;22.00;99.90;;;;;;5065906;28;20493;-71
2022/08/14 06:44:27;;;;;;;5.27;4.87;;;22.00;99.90;;;;;;5075572;28;20456;-71
2022/08/14 06:47:20;;;;;;;4.73;4.43;;;22.10;99.90;;;;;;5066290;28;20454;-70
2022/08/14 06:50:14;;;;;;;4.77;4.37;;;22.10;99.90;;;;;;5067795;28;20452;-71
2022/08/14 06:53:04;;;;;;;5.67;5.20;;;22.20;99.90;;;;;;5077738;28;20946;-71
2022/08/14 06:55:54;;;;;;;5.17;4.77;;;22.20;99.90;;;;;;5075888;28;20592;-71
2022/08/14 06:58:49;;;;;;;4.77;4.37;;;22.30;99.90;;;;;;5074797;28;20467;-71
2022/08/14 07:07:53;;;;;;;5.53;4.90;;;22.40;99.90;;;;;;5075941;28;20448;-71
2022/08/14 07:10:42;;;;;;;4.53;4.33;;;22.50;99.90;;;;;;5077131;28;20458;-71
2022/08/14 07:13:32;;;;;;;5.30;4.90;;;22.60;99.90;;;;;;5076832;28;20445;-71
2022/08/14 07:16:21;;;;;;;5.00;4.60;;;22.60;99.90;;;;;;5072604;28;20523;-71
2022/08/14 07:19:17;;;;;;;5.13;4.67;;;22.70;99.90;;;;;;5066222;28;21834;-71
2022/08/14 07:22:08;;;;;;;5.57;4.80;;;22.70;99.90;;;;;;5072429;28;20456;-71
2022/08/14 07:25:08;;;;;;;5.33;5.03;;;22.80;99.90;;;;;;5064183;28;21532;-71
2022/08/14 07:27:56;;;;;;;5.53;5.10;;;22.80;99.90;;;;;;5074684;28;20616;-71
2022/08/14 07:30:48;;;;;;;5.43;4.90;;;22.90;99.90;;;;;;5075412;28;20586;-72
2022/08/14 07:33:41;;;;;;;6.33;5.70;;;22.90;99.90;;;;;;5071245;28;20471;-72
2022/08/14 07:36:38;;;;;;;5.33;4.93;;;22.90;99.90;;;;;;5076749;28;20469;-73
2022/08/14 07:39:45;;;;;;;7.70;5.47;;;23.00;99.90;;;;;;5068307;28;20449;-73
2022/08/14 07:42:34;;;;;;;5.30;4.90;;;23.00;99.90;;;;;;5072485;28;20551;-74
2022/08/14 07:45:23;;;;;;;6.27;5.63;;;23.10;99.90;;;;;;5073008;28;20485;-73
2022/08/14 07:48:12;;;;;;;5.80;5.40;;;23.10;99.90;;;;;;5071936;28;20466;-73
2022/08/14 07:51:03;;;;;;;5.40;4.97;;;23.10;99.90;;;;;;5071526;28;20580;-73
2022/08/14 07:53:58;;;;;;;9.37;5.00;;;23.20;99.90;;;;;;5068022;28;20444;-73
2022/08/14 07:56:46;;;;;;;5.83;5.43;;;23.30;99.90;;;;;;5069524;28;20498;-73
2022/08/14 07:59:40;;;;;;;5.90;5.50;;;23.30;99.90;;;;;;5067471;28;20519;-72
2022/08/14 08:02:33;;;;;;;5.43;5.13;;;23.40;99.90;;;;;;5070002;28;20828;-72
2022/08/14 08:05:29;;;;;;;5.67;5.17;;;23.50;99.90;;;;;;5073510;28;20640;-72
2022/08/14 08:08:19;;;;;;;4.90;4.60;;;23.60;99.90;;;;;;5074448;28;20912;-72
2022/08/14 08:11:18;;;;;;;6.03;4.90;;;23.60;99.90;;;;;;5074244;28;20548;-72
2022/08/14 08:14:09;;;;;;;6.07;5.50;;;23.70;99.90;;;;;;5074111;28;20464;-72
2022/08/14 08:17:05;;;;;;;5.67;5.17;;;23.80;99.90;;;;;;5065303;28;20536;-71
2022/08/14 08:19:55;;;;;;;5.50;5.10;;;23.90;99.90;;;;;;5066470;28;20453;-72
2022/08/14 08:22:44;;;;;;;5.47;5.17;;;24.00;99.90;;;;;;5068302;28;20495;-72
2022/08/14 08:25:39;;;;;;;5.87;5.33;;;24.10;99.90;;;;;;5075220;28;20619;-72
2022/08/14 08:28:29;;;;;;;5.80;5.40;;;24.20;99.90;;;;;;5074388;28;20450;-71
2022/08/14 08:31:17;;;;;;;7.23;5.73;;;24.30;99.90;;;;;;5078630;28;20528;-72
2022/08/14 08:34:07;;;;;;;6.73;5.80;;;24.50;99.90;;;;;;5074967;28;20454;-72
2022/08/14 08:37:05;;;;;;;6.00;5.60;;;24.50;99.90;;;;;;5077748;28;20453;-72
2022/08/14 08:39:55;;;;;;;6.07;5.73;;;24.70;99.90;;;;;;5074759;28;20506;-72
2022/08/14 08:42:51;;;;;;;6.60;6.00;;;24.70;99.90;;;;;;5078604;28;20589;-72
2022/08/14 08:45:43;;;;;;;6.10;5.70;;;24.80;99.90;;;;;;5078516;28;20460;-71
2022/08/14 08:48:45;;;;;;;6.00;5.50;;;24.90;99.90;;;;;;5075006;28;20457;-71
2022/08/14 08:51:40;;;;;;;5.67;5.20;;;25.00;99.90;;;;;;5077375;28;20513;-72
2022/08/14 08:54:30;;;;;;;6.70;6.10;;;25.10;99.90;;;;;;5074740;28;20491;-71
2022/08/14 08:57:20;;;;;;;6.83;6.30;;;25.20;99.90;;;;;;5075609;28;20545;-71
2022/08/14 09:00:18;;;;;;;7.80;5.60;;;25.20;99.90;;;;;;5065557;28;20488;-71
2022/08/14 09:03:17;;;;;;;6.80;6.10;;;25.30;99.90;;;;;;5075254;28;20463;-71
2022/08/14 09:06:07;;;;;;;6.20;5.83;;;25.40;99.90;;;;;;5076586;28;20536;-73
2022/08/14 09:09:23;;;;;;;6.10;5.80;;;25.40;99.90;;;;;;5071829;28;20443;-71
2022/08/14 09:12:11;;;;;;;6.47;5.97;;;25.50;99.90;;;;;;5077677;28;20524;-71
2022/08/14 09:15:06;;;;;;;7.10;6.60;;;25.60;99.90;;;;;;5076226;28;20625;-71
2022/08/14 09:18:00;;;;;;;6.47;5.87;;;25.70;99.90;;;;;;5075528;28;20494;-71
2022/08/14 09:20:51;;;;;;;6.80;6.40;;;25.70;99.90;;;;;;5076041;28;20541;-71
2022/08/14 09:23:46;;;;;;;6.57;6.07;;;25.80;99.90;;;;;;5073745;28;20997;-71
2022/08/14 09:26:57;;;;;;;6.73;6.23;;;25.90;99.90;;;;;;5075331;28;20506;-71
2022/08/14 09:29:46;;;;;;;7.77;7.17;;;26.00;99.90;;;;;;5075497;28;21012;-72
2022/08/14 09:33:21;;;;;;;7.23;6.53;;;26.10;99.90;;;;;;5071639;28;20474;-71
2022/08/14 09:36:35;;;;;;;6.73;6.33;;;26.20;99.90;;;;;;5070725;28;20473;-71
2022/08/14 09:39:37;;;;;;;6.83;6.23;;;26.20;99.90;;;;;;5071749;28;20483;-71
2022/08/14 09:42:41;;;;;;;6.80;6.30;;;26.30;99.90;;;;;;5075326;28;20554;-71
2022/08/14 09:45:44;;;;;;;7.00;6.40;;;26.40;99.90;;;;;;5075954;28;20555;-73
2022/08/14 09:48:42;;;;;;;7.13;6.70;;;26.50;99.90;;;;;;5074165;28;20445;-74
2022/08/14 09:51:31;;;;;;;6.97;6.47;;;26.50;99.90;;;;;;5074104;28;20980;-73
2022/08/14 09:54:38;;;;;;;7.67;6.87;;;26.60;99.90;;;;;;5073443;28;20452;-72
2022/08/14 09:57:29;;;;;;;7.50;6.90;;;26.60;99.90;;;;;;5074410;28;20947;-72
2022/08/14 10:00:22;;;;;;;8.40;6.50;;;26.70;99.90;;;;;;5075553;28;20980;-72
2022/08/14 10:03:32;;;;;;;7.13;6.63;;;26.80;99.90;;;;;;5075331;28;20603;-72
2022/08/14 10:06:27;;;;;;;7.27;6.73;;;26.80;99.90;;;;;;5073894;28;20472;-73
2022/08/14 10:09:17;;;;;;;7.57;7.07;;;26.90;99.90;;;;;;5073954;28;20453;-72
2022/08/14 10:12:08;;;;;;;8.27;6.70;;;27.00;99.90;;;;;;5074140;28;20831;-72
2022/08/14 10:15:15;;;;;;;8.37;6.93;;;27.00;99.90;;;;;;5072394;28;20533;-72
2022/08/14 10:18:08;;;;;;;7.10;6.70;;;27.10;99.90;;;;;;5067087;28;20456;-72
2022/08/14 10:20:59;;;;;;;7.90;7.30;;;27.20;99.90;;;;;;5068745;28;21584;-73
2022/08/14 10:23:51;;;;;;;8.30;7.80;;;27.30;99.90;;;;;;5066444;28;20488;-72
2022/08/14 10:26:42;;;;;;;9.00;8.40;;;27.40;99.90;;;;;;5073712;28;20466;-71
2022/08/14 10:29:32;;;;;;;9.00;8.23;;;27.40;99.90;;;;;;5074231;28;20450;-71
2022/08/14 10:32:24;;;;;;;7.60;7.00;;;27.50;99.90;;;;;;5065090;28;20477;-71
2022/08/14 10:35:23;;;;;;;8.40;7.80;;;27.60;99.90;;;;;;5068904;28;20481;-71
2022/08/14 10:38:27;;;;;;;8.20;7.60;;;27.60;99.90;;;;;;5072983;28;20472;-71
2022/08/14 10:41:18;;;;;;;8.50;8.00;;;27.70;99.90;;;;;;5073554;28;20966;-71
2022/08/14 10:44:09;;;;;;;8.30;7.60;;;27.70;99.90;;;;;;5068889;28;20477;-72
2022/08/14 10:47:10;;;;;;;8.53;7.90;;;27.80;99.90;;;;;;5064927;28;20458;-72
2022/08/14 10:50:29;;;;;;;9.97;8.97;;;27.80;99.90;;;;;;5066887;28;20433;-71
2022/08/14 10:53:29;;;;;;;8.73;8.13;;;27.80;99.90;;;;;;5066345;28;20436;-72
2022/08/14 10:56:32;;;;;;;9.37;8.73;;;27.80;99.90;;;;;;5067984;28;21077;-72
2022/08/14 10:59:23;;;;;;;10.77;9.77;;;27.80;99.90;;;;;;5065736;28;20531;-73
2022/08/14 11:02:31;;;;;;;9.00;8.40;;;27.80;99.90;;;;;;5075980;28;20451;-72
2022/08/14 11:05:42;;;;;;;9.07;8.37;;;27.80;99.90;;;;;;5073836;28;20481;-72
2022/08/14 11:08:32;;;;;;;9.47;8.77;;;27.70;99.90;;;;;;5075423;28;20534;-72
2022/08/14 11:11:24;;;;;;;18.00;16.27;;;27.70;99.90;;;;;;5078872;28;20480;-74
2022/08/14 11:14:24;;;;;;;26.73;24.07;;;27.70;99.90;;;;;;5073262;28;20444;-73
2022/08/14 11:17:14;;;;;;;36.63;33.27;;;27.70;99.90;;;;;;5071452;28;20487;-73
2022/08/14 11:20:10;;;;;;;17.40;15.83;;;27.70;99.90;;;;;;5075289;28;20500;-72
2022/08/14 11:23:08;;;;;;;24.47;22.20;;;27.70;99.90;;;;;;5076120;28;20446;-72
2022/08/14 11:25:58;;;;;;;11.40;10.40;;;27.70;99.90;;;;;;5074538;28;20473;-72
2022/08/14 11:28:49;;;;;;;10.23;9.43;;;27.70;99.90;;;;;;5080574;28;20456;-72
2022/08/14 11:31:39;;;;;;;13.97;12.87;;;27.60;99.90;;;;;;5072538;28;20530;-71
2022/08/14 11:34:28;;;;;;;13.03;12.03;;;27.70;99.90;;;;;;5067933;28;20982;-72
2022/08/14 11:37:21;;;;;;;15.17;13.77;;;27.60;99.90;;;;;;5074553;28;20446;-73
2022/08/14 11:40:29;;;;;;;16.23;15.07;;;27.60;99.90;;;;;;5077676;28;20529;-72
2022/08/14 11:43:23;;;;;;;15.87;14.60;;;27.60;99.90;;;;;;5073875;28;20465;-72
2022/08/14 11:46:22;;;;;;;12.33;11.07;;;27.70;99.90;;;;;;5075661;28;20469;-71
2022/08/14 11:49:29;;;;;;;11.90;11.00;;;27.70;99.90;;;;;;5073625;28;20999;-71
2022/08/14 11:52:22;;;;;;;11.17;10.40;;;27.70;99.90;;;;;;5071162;28;20527;-72
2022/08/14 11:55:14;;;;;;;9.87;9.00;;;27.70;99.90;;;;;;5073311;28;23759;-74
2022/08/14 11:58:08;;;;;;;9.80;9.10;;;27.70;99.90;;;;;;5072603;28;20969;-71
2022/08/14 12:01:02;;;;;;;9.37;8.67;;;27.70;99.90;;;;;;5071302;28;20480;-71
2022/08/14 12:03:52;;;;;;;9.17;8.43;;;27.70;99.90;;;;;;5073164;28;20555;-72
2022/08/14 12:06:51;;;;;;;8.50;8.00;;;27.70;99.90;;;;;;5065156;28;20678;-72
2022/08/14 12:09:40;;;;;;;8.13;7.47;;;27.70;99.90;;;;;;5075528;28;20446;-72
2022/08/14 12:12:31;;;;;;;8.60;8.00;;;27.60;99.90;;;;;;5073672;28;20533;-71
2022/08/14 12:15:34;;;;;;;8.40;7.80;;;27.70;99.90;;;;;;5075374;28;20556;-72
2022/08/14 12:18:31;;;;;;;9.23;8.43;;;27.70;99.90;;;;;;5062961;28;20451;-71
2022/08/14 12:21:23;;;;;;;9.60;8.90;;;27.60;99.90;;;;;;5065434;28;20449;-71
2022/08/14 12:24:16;;;;;;;8.73;8.03;;;27.60;99.90;;;;;;5073084;28;20480;-72
2022/08/14 12:27:35;;;;;;;39.87;36.97;;;27.60;99.90;;;;;;5074081;28;21700;-72
2022/08/14 12:30:43;;;;;;;14.03;13.13;;;27.70;99.90;;;;;;5071176;28;20542;-71
2022/08/14 12:33:33;;;;;;;35.57;32.50;;;27.70;99.90;;;;;;5074470;28;20499;-72
2022/08/14 12:36:22;;;;;;;18.83;17.17;;;27.70;99.90;;;;;;5071830;28;20550;-71
2022/08/14 12:39:19;;;;;;;19.67;17.97;;;27.80;99.90;;;;;;5067912;28;20441;-72
2022/08/14 12:42:09;;;;;;;11.50;10.70;;;27.90;99.90;;;;;;5070071;28;21055;-71
2022/08/14 12:45:35;;;;;;;11.33;10.40;;;28.00;99.90;;;;;;5067696;28;21299;-72
2022/08/14 12:48:28;;;;;;;62.77;58.77;;;28.10;99.90;;;;;;5076023;28;20460;-71
2022/08/14 12:51:21;;;;;;;24.83;23.27;;;28.30;99.90;;;;;;5072983;28;20579;-73
2022/08/14 12:54:18;;;;;;;12.47;11.47;;;28.40;99.90;;;;;;5073258;28;20450;-73
2022/08/14 12:57:17;;;;;;;9.17;8.53;;;28.60;99.90;;;;;;5080632;28;20448;-73
2022/08/14 13:00:11;;;;;;;8.90;8.20;;;28.80;99.90;;;;;;5087122;28;20466;-73
2022/08/14 13:03:24;;;;;;;8.07;7.57;;;29.10;99.90;;;;;;5083927;28;20448;-71
2022/08/14 13:06:15;;;;;;;8.97;8.30;;;29.30;99.90;;;;;;5090742;28;20487;-71
2022/08/14 13:09:04;;;;;;;7.97;7.47;;;29.60;99.90;;;;;;5083243;28;20544;-71
2022/08/14 13:12:03;;;;;;;8.30;7.50;;;29.80;99.90;;;;;;5075617;28;20460;-70
2022/08/14 13:15:13;;;;;;;8.70;7.90;;;30.10;99.90;;;;;;5073162;28;20958;-73
2022/08/14 13:18:03;;;;;;;9.70;8.80;;;30.30;99.90;;;;;;5073190;28;20480;-72
2022/08/14 13:20:54;;;;;;;9.13;8.40;;;30.50;99.90;;;;;;5080539;28;20568;-73
2022/08/14 13:23:48;;;;;;;8.53;7.83;;;30.70;99.90;;;;;;5085781;28;20454;-74
2022/08/14 13:26:44;;;;;;;8.20;7.70;;;30.90;99.90;;;;;;5086537;28;20577;-74
2022/08/14 13:29:51;;;;;;;9.50;8.77;;;31.10;99.90;;;;;;5068314;28;20548;-74
2022/08/14 13:32:45;;;;;;;9.43;8.83;;;31.30;99.90;;;;;;5072975;28;20461;-74
2022/08/14 13:35:38;;;;;;;9.17;8.57;;;31.40;99.90;;;;;;5073762;28;20481;-76
2022/08/14 13:38:28;;;;;;;9.20;8.60;;;31.60;99.90;;;;;;5077416;28;21039;-76
2022/08/14 13:41:20;;;;;;;8.60;7.90;;;31.80;99.90;;;;;;5070116;28;20496;-75
2022/08/14 13:44:15;;;;;;;8.97;8.37;;;31.90;99.90;;;;;;5075141;28;20454;-75
2022/08/14 13:47:13;;;;;;;8.13;7.63;;;32.10;99.90;;;;;;5078450;28;20499;-75
2022/08/14 13:50:05;;;;;;;9.37;8.80;;;32.30;99.90;;;;;;5072721;28;20454;-76
2022/08/14 13:52:57;;;;;;;8.70;8.20;;;32.50;99.90;;;;;;5061272;28;20481;-76
2022/08/14 13:55:47;;;;;;;8.60;8.00;;;32.70;99.90;;;;;;5070401;28;20485;-73
2022/08/14 13:58:42;;;;;;;9.23;8.33;;;33.00;99.90;;;;;;5075632;28;20821;-74
2022/08/14 14:01:35;;;;;;;8.27;7.77;;;33.30;99.90;;;;;;5069203;28;20603;-74
2022/08/14 14:04:38;;;;;;;8.40;7.90;;;33.40;99.90;;;;;;5071795;28;20457;-73
2022/08/14 14:07:30;;;;;;;8.60;8.00;;;33.50;99.90;;;;;;5069751;28;20542;-72
2022/08/14 14:10:20;;;;;;;8.13;7.73;;;33.70;99.90;;;;;;5059336;28;20446;-73
2022/08/14 14:13:18;;;;;;;9.70;9.00;;;33.90;99.90;;;;;;5075736;28;20452;-74
2022/08/14 14:16:11;;;;;;;9.30;8.57;;;33.90;99.90;;;;;;5071083;28;20482;-73
2022/08/14 14:19:11;;;;;;;9.60;8.83;;;34.10;99.90;;;;;;5069989;28;20449;-73
2022/08/14 14:22:04;;;;;;;8.53;7.93;;;34.10;99.90;;;;;;5080597;28;20509;-73
2022/08/14 14:24:56;;;;;;;8.70;8.10;;;34.10;99.90;;;;;;5082474;28;20620;-72
2022/08/14 14:27:48;;;;;;;8.97;8.30;;;34.20;99.90;;;;;;5079326;28;20437;-73
2022/08/14 14:30:45;;;;;;;8.20;7.50;;;34.50;99.90;;;;;;5061657;28;20450;-73
2022/08/14 14:33:46;;;;;;;7.50;7.10;;;;;;;;;;5082494;28;20454;-73
2022/08/14 14:36:36;;;;;;;8.40;7.90;;;;;;;;;;5069735;28;20845;-74
2022/08/14 14:39:29;;;;;;;8.47;7.70;;;;;;;;;;5069211;28;20868;-73
2022/08/14 14:42:25;;;;;;;7.67;7.10;;;;;;;;;;5090444;28;20465;-73
2022/08/14 14:45:22;;;;;;;7.73;7.03;;;34.70;99.90;;;;;;5089187;28;20491;-74
2022/08/14 14:48:11;;;;;;;7.63;7.00;;;35.80;99.90;;;;;;5079761;28;20491;-74
2022/08/14 14:51:03;;;;;;;8.00;7.27;;;36.20;99.90;;;;;;5071435;28;20475;-74
2022/08/14 14:53:52;;;;;;;7.77;7.10;;;36.20;99.90;;;;;;5067077;28;20591;-73
2022/08/14 14:56:42;;;;;;;7.50;7.00;;;35.90;99.90;;;;;;5064240;28;20959;-74
2022/08/14 14:59:41;;;;;;;7.73;7.13;;;35.50;99.90;;;;;;5079149;28;20531;-75
2022/08/14 15:02:34;;;;;;;8.20;7.60;;;;;;;;;;5078718;28;20484;-75
2022/08/14 15:05:29;;;;;;;8.37;7.67;;;;;;;;;;5065379;28;20488;-73
2022/08/14 15:08:24;;;;;;;7.47;6.97;;;;;;;;;;5074576;28;20461;-72
2022/08/14 15:11:35;;;;;;;7.47;6.97;;;35.20;99.90;;;;;;5089328;28;20448;-75
2022/08/14 15:14:27;;;;;;;6.90;6.50;;;34.10;99.90;;;;;;5091976;28;20441;-75
2022/08/14 15:17:40;;;;;;;7.30;6.80;;;34.00;99.90;;;;;;5096890;28;20440;-73
2022/08/14 15:20:29;;;;;;;7.30;6.80;;;33.80;99.90;;;;;;5087566;28;20915;-73
2022/08/14 15:23:18;;;;;;;7.70;7.27;;;33.70;99.90;;;;;;5086772;28;20475;-73
2022/08/14 15:26:11;;;;;;;7.37;6.80;;;33.50;99.90;;;;;;5080502;28;20526;-71
2022/08/14 15:29:13;;;;;;;7.10;6.60;;;33.30;99.90;;;;;;5067925;28;20545;-72
2022/08/14 15:32:05;;;;;;;7.03;6.40;;;33.00;99.90;;;;;;5060258;28;20502;-72
2022/08/14 15:34:56;;;;;;;6.90;6.30;;;32.90;99.90;;;;;;5057092;28;20483;-72
2022/08/14 15:37:48;;;;;;;7.13;5.80;;;32.70;99.90;;;;;;5065518;28;20493;-72
2022/08/14 15:40:49;;;;;;;7.10;6.50;;;32.60;99.90;;;;;;5064615;28;20463;-72